Time;durP1;ratioP1;P1;durP2;ratioP2;P2;SDS_P1;SDS_P2;PMS_P1;PMS_P2;Temp;Humidity;BMP_temperature;BMP_pressure;BME280_temperature;BME280_humidity;BME280_pressure;Samples;Min_cycle;Max_cycle;Signal;HPM_P1;HPM_P2
2022/05/19 00:01:25;;;;;;;8.80;6.85;;;26.00;98.40;;;;;;5097222;28;20020;-49
2022/05/19 00:03:28;;;;;;;13.23;8.02;;;26.00;98.40;;;;;;5097038;28;20406;-55
2022/05/19 00:05:55;;;;;;;9.63;7.28;;;26.10;98.40;;;;;;5103554;28;20024;-53
2022/05/19 00:08:22;;;;;;;9.05;6.25;;;26.10;98.50;;;;;;5104548;28;20083;-50
2022/05/19 00:10:49;;;;;;;7.82;5.13;;;26.10;98.50;;;;;;5096949;28;20023;-54
2022/05/19 00:13:16;;;;;;;8.15;4.55;;;26.10;98.50;;;;;;5098411;28;20020;-52
2022/05/19 00:15:43;;;;;;;6.47;3.47;;;26.10;98.30;;;;;;5094144;28;20095;-46
2022/05/19 00:18:10;;;;;;;6.18;3.60;;;26.10;98.40;;;;;;5090602;28;20035;-49
2022/05/19 00:20:40;;;;;;;4.78;2.83;;;26.10;98.40;;;;;;5087005;28;20108;-49
2022/05/19 00:23:07;;;;;;;6.10;2.88;;;26.10;98.50;;;;;;5082398;28;20309;-55
2022/05/19 00:25:33;;;;;;;5.45;2.65;;;26.00;98.40;;;;;;5082175;28;20080;-52
2022/05/19 00:28:00;;;;;;;6.88;2.53;;;26.10;98.50;;;;;;5082597;28;20099;-49
2022/05/19 00:30:27;;;;;;;5.22;2.30;;;26.00;98.50;;;;;;5084707;28;20331;-52
2022/05/19 00:33:04;;;;;;;9.82;2.40;;;26.00;98.60;;;;;;5090203;28;20024;-48
2022/05/19 00:35:31;;;;;;;5.70;2.42;;;26.00;98.50;;;;;;5102890;28;20023;-52
2022/05/19 00:37:58;;;;;;;6.57;3.22;;;26.00;98.60;;;;;;5106594;28;20182;-51
2022/05/19 00:40:25;;;;;;;10.95;4.32;;;26.00;98.60;;;;;;5108311;28;20024;-51
2022/05/19 00:42:55;;;;;;;8.50;4.13;;;26.00;98.80;;;;;;5100425;28;20058;-46
2022/05/19 00:45:25;;;;;;;10.40;3.97;;;26.00;98.60;;;;;;5090251;28;20086;-48
2022/05/19 00:48:06;;;;;;;9.23;3.97;;;26.00;98.50;;;;;;5103205;28;20121;-55
2022/05/19 00:50:42;;;;;;;8.20;3.63;;;26.00;98.50;;;;;;5104184;28;20309;-47
2022/05/19 00:53:15;;;;;;;13.77;3.20;;;26.00;98.40;;;;;;5095898;28;20112;-55
2022/05/19 00:55:47;;;;;;;6.28;2.80;;;26.00;98.50;;;;;;5098836;28;20020;-50
2022/05/19 00:58:40;;;;;;;8.67;2.87;;;26.00;98.60;;;;;;5088863;28;20032;-55
2022/05/19 01:01:07;;;;;;;9.18;3.22;;;25.90;98.60;;;;;;5087062;28;20040;-46
2022/05/19 01:03:41;;;;;;;12.68;3.80;;;26.00;98.70;;;;;;5091435;28;20040;-53
2022/05/19 01:06:19;;;;;;;20.60;5.13;;;25.90;98.70;;;;;;5110068;28;20016;-47
2022/05/19 01:09:06;;;;;;;32.75;10.75;;;26.00;98.70;;;;;;5098653;28;20020;-51
2022/05/19 01:11:36;;;;;;;52.47;21.75;;;25.90;98.50;;;;;;5087279;28;20119;-50
2022/05/19 01:14:03;;;;;;;30.73;13.60;;;25.90;98.50;;;;;;5087720;28;20020;-51
2022/05/19 01:16:32;;;;;;;30.42;11.75;;;25.90;98.50;;;;;;5085929;28;20278;-51
2022/05/19 01:19:00;;;;;;;14.48;6.32;;;25.80;98.30;;;;;;5087901;28;20024;-51
2022/05/19 01:21:32;;;;;;;15.02;5.53;;;25.80;98.30;;;;;;5087642;28;20016;-48
2022/05/19 01:24:06;;;;;;;10.35;3.47;;;25.80;98.20;;;;;;5087714;28;20077;-49
2022/05/19 01:26:44;;;;;;;8.23;2.25;;;25.70;98.20;;;;;;5092083;28;20024;-49
2022/05/19 01:29:13;;;;;;;5.35;1.42;;;25.70;98.00;;;;;;5101947;28;20190;-49
2022/05/19 01:31:45;;;;;;;4.72;1.20;;;25.70;98.10;;;;;;5104689;28;20016;-50
2022/05/19 01:34:12;;;;;;;8.85;1.42;;;25.80;98.10;;;;;;5105908;28;20304;-53
2022/05/19 01:36:38;;;;;;;5.15;1.40;;;25.80;97.90;;;;;;5094281;28;20304;-53
2022/05/19 01:39:17;;;;;;;5.38;1.13;;;25.80;97.90;;;;;;5101870;28;20031;-48
2022/05/19 01:42:02;;;;;;;5.45;1.00;;;25.70;98.00;;;;;;5106320;28;20023;-50
2022/05/19 01:44:53;;;;;;;8.25;1.13;;;25.70;98.00;;;;;;5099219;28;20112;-52
2022/05/19 01:47:42;;;;;;;6.43;1.35;;;25.70;98.10;;;;;;5088799;28;20036;-51
2022/05/19 01:50:25;;;;;;;8.05;1.25;;;25.80;98.00;;;;;;5098244;28;20016;-51
2022/05/19 01:52:59;;;;;;;5.55;1.00;;;25.90;97.90;;;;;;5106419;28;20051;-51
2022/05/19 01:55:48;;;;;;;7.03;1.30;;;25.90;97.90;;;;;;5099083;28;20024;-47
2022/05/19 01:58:29;;;;;;;4.15;0.98;;;25.90;97.80;;;;;;5086266;28;20064;-51
2022/05/19 02:00:59;;;;;;;5.38;0.90;;;25.90;97.70;;;;;;5086300;28;20023;-52
2022/05/19 02:03:49;;;;;;;4.72;1.02;;;25.90;97.60;;;;;;5084663;28;20048;-50
2022/05/19 02:06:35;;;;;;;5.47;0.90;;;26.00;97.60;;;;;;5046992;28;20031;-51
2022/05/19 02:09:30;;;;;;;8.82;1.00;;;26.00;97.60;;;;;;5084837;28;20032;-46
2022/05/19 02:12:08;;;;;;;2.42;0.80;;;26.00;97.50;;;;;;5081523;28;20069;-53
2022/05/19 02:14:45;;;;;;;3.65;0.73;;;26.00;97.50;;;;;;5086979;28;20297;-52
2022/05/19 02:17:16;;;;;;;6.82;0.73;;;26.00;97.40;;;;;;5086081;28;20048;-50
2022/05/19 02:19:51;;;;;;;6.50;0.80;;;26.00;97.40;;;;;;5085910;28;20048;-51
2022/05/19 02:22:20;;;;;;;6.13;0.70;;;26.00;97.30;;;;;;5085465;28;20369;-56
2022/05/19 02:24:59;;;;;;;6.38;1.42;;;26.00;97.30;;;;;;5087408;28;20024;-51
2022/05/19 02:27:48;;;;;;;7.00;1.63;;;26.00;97.20;;;;;;5096798;28;20058;-56
2022/05/19 02:30:45;;;;;;;3.83;1.20;;;26.10;97.30;;;;;;5106038;28;20023;-51
2022/05/19 02:33:14;;;;;;;5.28;1.23;;;26.00;97.20;;;;;;5101667;28;20081;-53
2022/05/19 02:35:43;;;;;;;6.03;1.00;;;26.00;97.20;;;;;;5105700;28;20301;-52
2022/05/19 02:38:10;;;;;;;4.70;0.75;;;26.10;97.20;;;;;;5105449;28;20378;-56
2022/05/19 02:40:38;;;;;;;4.07;0.70;;;26.00;97.20;;;;;;5105358;28;20023;-55
2022/05/19 02:43:06;;;;;;;4.85;0.68;;;26.00;97.10;;;;;;5105901;28;20141;-53
2022/05/19 02:45:34;;;;;;;4.18;0.60;;;26.00;97.10;;;;;;5105813;28;20019;-50
2022/05/19 02:48:01;;;;;;;4.63;0.85;;;26.00;97.10;;;;;;5105498;28;20239;-53
2022/05/19 02:50:28;;;;;;;4.78;0.80;;;26.00;97.10;;;;;;5105424;28;20260;-51
2022/05/19 02:52:55;;;;;;;4.32;0.63;;;26.00;97.10;;;;;;5104492;28;20055;-47
2022/05/19 02:55:23;;;;;;;5.45;0.75;;;26.00;97.10;;;;;;5097901;28;20300;-50
2022/05/19 02:57:50;;;;;;;8.63;0.90;;;26.00;97.10;;;;;;5092257;28;20028;-54
2022/05/19 03:00:22;;;;;;;3.65;0.60;;;26.00;97.00;;;;;;5084131;28;20051;-52
2022/05/19 03:02:49;;;;;;;4.30;0.75;;;26.00;97.00;;;;;;5083522;28;20076;-54
2022/05/19 03:05:20;;;;;;;4.18;0.70;;;26.00;97.00;;;;;;5084972;28;20086;-53
2022/05/19 03:07:47;;;;;;;4.20;0.70;;;26.00;97.00;;;;;;5084592;28;20031;-56
2022/05/19 03:10:14;;;;;;;5.10;0.70;;;26.00;96.90;;;;;;5085356;28;20012;-48
2022/05/19 03:12:41;;;;;;;4.00;0.60;;;26.00;96.90;;;;;;5085066;28;20025;-46
2022/05/19 03:15:08;;;;;;;5.75;0.70;;;26.00;96.90;;;;;;5084809;28;20019;-49
2022/05/19 03:17:36;;;;;;;3.35;0.60;;;26.00;96.90;;;;;;5084370;28;20066;-55
2022/05/19 03:20:06;;;;;;;13.13;0.80;;;25.90;96.80;;;;;;5084942;28;20331;-51
2022/05/19 03:22:34;;;;;;;5.10;0.50;;;25.90;96.80;;;;;;5084846;28;20012;-52
2022/05/19 03:25:08;;;;;;;5.97;0.90;;;25.90;96.90;;;;;;5084902;28;20083;-52
2022/05/19 03:27:37;;;;;;;4.22;0.75;;;26.00;96.90;;;;;;5085722;28;20031;-51
2022/05/19 03:30:06;;;;;;;6.07;0.60;;;26.00;96.90;;;;;;5095243;28;20016;-49
2022/05/19 03:32:33;;;;;;;7.45;0.70;;;26.00;96.90;;;;;;5084844;28;20016;-50
2022/05/19 03:35:07;;;;;;;4.13;0.63;;;25.90;96.90;;;;;;5084619;28;20016;-53
2022/05/19 03:37:33;;;;;;;3.15;0.88;;;25.90;96.90;;;;;;5084390;28;20013;-55
2022/05/19 03:40:00;;;;;;;3.92;0.77;;;25.90;96.90;;;;;;5084642;28;20021;-45
2022/05/19 03:42:27;;;;;;;5.40;0.60;;;25.90;96.90;;;;;;5084471;28;20036;-49
2022/05/19 03:44:54;;;;;;;3.53;0.60;;;26.00;96.90;;;;;;5084172;28;20016;-46
2022/05/19 03:47:20;;;;;;;3.38;0.60;;;25.90;96.90;;;;;;5083073;28;20021;-51
2022/05/19 03:49:50;;;;;;;3.42;0.93;;;25.90;96.90;;;;;;5094592;28;20253;-49
2022/05/19 03:52:16;;;;;;;4.65;0.55;;;25.90;96.90;;;;;;5084366;28;20020;-47
2022/05/19 03:54:44;;;;;;;4.65;0.50;;;25.90;96.90;;;;;;5084157;28;20013;-48
2022/05/19 03:57:12;;;;;;;5.45;0.60;;;25.90;96.90;;;;;;5084395;28;20024;-52
2022/05/19 03:59:39;;;;;;;8.35;1.00;;;25.90;96.90;;;;;;5083997;28;20032;-52
2022/05/19 04:02:06;;;;;;;4.95;0.52;;;25.90;96.90;;;;;;5083827;28;20052;-47
2022/05/19 04:04:33;;;;;;;5.38;0.70;;;25.90;96.90;;;;;;5084275;28;20032;-54
2022/05/19 04:07:00;;;;;;;6.65;0.60;;;25.90;96.90;;;;;;5083440;28;20301;-50
2022/05/19 04:09:26;;;;;;;5.93;0.70;;;25.90;96.90;;;;;;5084443;28;20029;-52
2022/05/19 04:11:53;;;;;;;9.80;0.70;;;25.90;96.90;;;;;;5082888;28;20201;-50
2022/05/19 04:14:20;;;;;;;5.10;0.50;;;25.90;96.90;;;;;;5086977;28;20021;-48
2022/05/19 04:16:49;;;;;;;2.92;0.50;;;25.90;96.90;;;;;;5083891;28;20024;-52
2022/05/19 04:19:17;;;;;;;6.80;0.75;;;25.90;96.90;;;;;;5085951;28;20031;-55
2022/05/19 04:21:44;;;;;;;7.68;0.60;;;25.90;96.90;;;;;;5084036;28;20021;-54
2022/05/19 04:24:11;;;;;;;6.55;0.68;;;25.90;96.90;;;;;;5084631;28;20029;-50
2022/05/19 04:26:38;;;;;;;6.20;0.55;;;25.90;96.90;;;;;;5084318;28;20042;-50
2022/05/19 04:29:05;;;;;;;3.90;0.60;;;25.90;96.90;;;;;;5082999;28;20028;-57
2022/05/19 04:31:32;;;;;;;5.20;0.60;;;25.90;96.90;;;;;;5084586;28;20040;-53
2022/05/19 04:33:59;;;;;;;4.93;0.93;;;25.90;96.90;;;;;;5084456;28;20323;-50
2022/05/19 04:36:26;;;;;;;6.50;0.88;;;25.90;96.90;;;;;;5084073;28;20051;-51
2022/05/19 04:38:53;;;;;;;6.13;0.70;;;25.90;96.90;;;;;;5084252;28;20039;-46
2022/05/19 04:41:19;;;;;;;7.38;0.60;;;25.90;96.90;;;;;;5100942;28;20031;-52
2022/05/19 04:43:46;;;;;;;7.32;0.73;;;25.90;96.80;;;;;;5104534;28;20032;-52
2022/05/19 04:46:13;;;;;;;5.72;0.50;;;25.90;96.90;;;;;;5095239;28;20016;-48
2022/05/19 04:48:39;;;;;;;9.93;0.82;;;25.90;96.90;;;;;;5093309;28;20028;-49
2022/05/19 04:51:06;;;;;;;4.25;0.80;;;25.90;96.90;;;;;;5094605;28;20012;-49
2022/05/19 04:53:33;;;;;;;9.25;0.80;;;25.90;96.90;;;;;;5090722;28;20016;-53
2022/05/19 04:56:00;;;;;;;6.28;0.70;;;25.90;96.90;;;;;;5084624;28;20297;-49
2022/05/19 04:58:28;;;;;;;8.07;1.10;;;25.90;96.80;;;;;;5095921;28;20031;-58
2022/05/19 05:01:04;;;;;;;4.47;0.80;;;25.90;96.80;;;;;;5104560;28;20026;-57
2022/05/19 05:03:34;;;;;;;10.27;0.80;;;25.90;96.80;;;;;;5098787;28;20336;-51
2022/05/19 05:06:01;;;;;;;3.17;0.50;;;25.90;96.70;;;;;;5084522;28;20296;-48
2022/05/19 05:08:27;;;;;;;7.40;0.68;;;25.90;96.70;;;;;;5083816;28;20213;-50
2022/05/19 05:10:54;;;;;;;5.35;0.68;;;25.90;96.60;;;;;;5088370;28;20069;-53
2022/05/19 05:13:21;;;;;;;4.70;0.60;;;25.90;96.60;;;;;;5090249;28;20029;-51
2022/05/19 05:16:02;;;;;;;8.13;0.60;;;25.90;96.60;;;;;;5084456;28;20013;-50
2022/05/19 05:18:29;;;;;;;7.93;0.60;;;25.90;96.60;;;;;;5087051;28;20070;-47
2022/05/19 05:20:59;;;;;;;8.93;0.90;;;25.90;96.60;;;;;;5088220;28;20012;-56
2022/05/19 05:23:26;;;;;;;5.20;0.55;;;25.90;96.60;;;;;;5087624;28;20024;-55
2022/05/19 05:25:56;;;;;;;5.68;0.60;;;25.80;96.60;;;;;;5087175;28;20052;-55
2022/05/19 05:28:23;;;;;;;6.40;0.70;;;25.80;96.50;;;;;;5086732;28;20025;-55
2022/05/19 05:30:51;;;;;;;7.80;0.70;;;25.80;96.50;;;;;;5087404;28;20279;-54
2022/05/19 05:33:17;;;;;;;12.02;0.80;;;25.80;96.50;;;;;;5087095;28;20079;-49
2022/05/19 05:35:44;;;;;;;2.40;0.52;;;25.80;96.50;;;;;;5085508;28;20023;-54
2022/05/19 05:38:11;;;;;;;4.38;0.55;;;25.80;96.50;;;;;;5084959;28;20031;-49
2022/05/19 05:40:38;;;;;;;6.15;0.60;;;25.80;96.40;;;;;;5084740;28;20460;-52
2022/05/19 05:43:10;;;;;;;5.97;0.75;;;25.80;96.40;;;;;;5083697;28;20220;-55
2022/05/19 05:45:38;;;;;;;5.25;0.47;;;25.80;96.40;;;;;;5084589;28;20051;-50
2022/05/19 05:48:05;;;;;;;4.20;0.68;;;25.80;96.40;;;;;;5084670;28;20020;-52
2022/05/19 05:50:33;;;;;;;3.28;0.90;;;25.80;96.40;;;;;;5083836;28;20024;-54
2022/05/19 05:52:59;;;;;;;4.22;0.70;;;25.80;96.40;;;;;;5086172;28;20027;-49
2022/05/19 05:55:26;;;;;;;3.22;0.70;;;25.80;96.40;;;;;;5093008;28;20308;-51
2022/05/19 05:57:52;;;;;;;3.92;0.63;;;25.80;96.40;;;;;;5106527;28;20099;-51
2022/05/19 06:00:21;;;;;;;4.80;0.70;;;25.80;96.40;;;;;;5106395;28;20076;-55
2022/05/19 06:02:49;;;;;;;4.97;0.82;;;25.80;96.40;;;;;;5089815;28;20045;-53
2022/05/19 06:05:17;;;;;;;6.85;0.85;;;25.80;96.40;;;;;;5085971;28;20087;-49
2022/05/19 06:07:43;;;;;;;3.67;0.50;;;25.80;96.40;;;;;;5086068;28;20059;-53
2022/05/19 06:10:12;;;;;;;3.88;0.60;;;25.80;96.40;;;;;;5090299;28;20079;-58
2022/05/19 06:12:39;;;;;;;4.88;0.40;;;25.80;96.30;;;;;;5106271;28;20028;-53
2022/05/19 06:15:07;;;;;;;3.67;0.40;;;25.80;96.30;;;;;;5106091;28;20012;-55
2022/05/19 06:17:34;;;;;;;6.40;0.50;;;25.80;96.30;;;;;;5105953;28;20016;-60
2022/05/19 06:20:01;;;;;;;5.68;0.40;;;25.80;96.30;;;;;;5105942;28;20016;-55
2022/05/19 06:22:27;;;;;;;4.28;0.60;;;25.80;96.30;;;;;;5105879;28;20023;-56
2022/05/19 06:24:54;;;;;;;6.13;0.50;;;25.80;96.30;;;;;;5105683;28;20026;-53
2022/05/19 06:27:20;;;;;;;3.63;0.40;;;25.80;96.30;;;;;;5105637;28;20027;-53
2022/05/19 06:29:47;;;;;;;5.03;0.70;;;25.80;96.30;;;;;;5105124;28;20055;-51
2022/05/19 06:32:14;;;;;;;4.50;0.63;;;25.80;96.30;;;;;;5104838;28;20019;-49
2022/05/19 06:34:41;;;;;;;2.58;0.40;;;25.80;96.30;;;;;;5106352;28;20008;-45
2022/05/19 06:37:10;;;;;;;1.50;0.30;;;25.80;96.30;;;;;;5106200;28;20020;-54
2022/05/19 06:39:37;;;;;;;4.78;0.40;;;25.80;96.30;;;;;;5106598;28;20031;-53
2022/05/19 06:42:04;;;;;;;2.13;0.40;;;25.80;96.30;;;;;;5106770;28;20312;-50
2022/05/19 06:44:39;;;;;;;6.00;0.32;;;25.80;96.30;;;;;;5105363;28;20032;-49
2022/05/19 06:47:15;;;;;;;3.80;0.30;;;25.80;96.30;;;;;;5105403;28;20046;-50
2022/05/19 06:49:51;;;;;;;3.97;0.40;;;25.80;96.20;;;;;;5105418;28;20028;-52
2022/05/19 06:52:21;;;;;;;2.40;0.40;;;25.80;96.20;;;;;;5105138;28;20043;-51
2022/05/19 06:54:49;;;;;;;1.70;0.30;;;25.80;96.20;;;;;;5105436;28;20019;-54
2022/05/19 06:57:16;;;;;;;4.15;0.40;;;25.80;96.20;;;;;;5105193;28;20313;-57
2022/05/19 06:59:43;;;;;;;5.03;0.40;;;25.80;96.10;;;;;;5105247;28;20091;-53
2022/05/19 07:02:11;;;;;;;1.90;0.28;;;25.80;96.10;;;;;;5105009;28;20115;-55
2022/05/19 07:04:38;;;;;;;7.80;0.57;;;25.70;96.10;;;;;;5105622;28;20055;-50
2022/05/19 07:07:05;;;;;;;2.95;0.40;;;25.70;96.10;;;;;;5105109;28;20028;-57
2022/05/19 07:09:34;;;;;;;4.95;0.45;;;25.70;96.00;;;;;;5105547;28;20028;-55
2022/05/19 07:12:01;;;;;;;5.97;0.40;;;25.70;96.00;;;;;;5104896;28;20019;-51
2022/05/19 07:14:28;;;;;;;3.70;0.50;;;25.70;96.00;;;;;;5105632;28;20164;-50
2022/05/19 07:16:55;;;;;;;1.58;0.20;;;25.70;95.90;;;;;;5104861;28;20220;-54
2022/05/19 07:22:08;;;;;;;4.63;0.45;;;25.70;95.90;;;;;;5104933;28;20062;-49
2022/05/19 07:24:35;;;;;;;4.22;0.60;;;25.70;95.80;;;;;;5105216;28;20079;-49
2022/05/19 07:27:01;;;;;;;4.82;0.30;;;25.70;95.80;;;;;;5104556;28;20351;-52
2022/05/19 07:29:28;;;;;;;1.80;0.40;;;25.70;95.80;;;;;;5105138;28;20251;-54
2022/05/19 07:32:00;;;;;;;3.55;0.50;;;25.70;95.80;;;;;;5104609;28;20016;-50
2022/05/19 07:34:30;;;;;;;4.22;0.60;;;25.70;95.80;;;;;;5105056;28;20416;-47
2022/05/19 07:36:57;;;;;;;7.20;0.50;;;25.70;95.80;;;;;;5105026;28;20296;-47
2022/05/19 07:39:24;;;;;;;4.32;0.40;;;25.70;95.70;;;;;;5104334;28;20024;-48
2022/05/19 07:41:54;;;;;;;5.53;0.50;;;25.70;95.70;;;;;;5103379;28;20024;-52
2022/05/19 07:44:21;;;;;;;4.82;0.47;;;25.70;95.80;;;;;;5104858;28;20023;-54
2022/05/19 07:46:48;;;;;;;4.35;0.80;;;25.70;95.80;;;;;;5104167;28;20039;-47
2022/05/19 07:49:15;;;;;;;3.70;0.30;;;25.70;95.70;;;;;;5104779;28;20070;-46
2022/05/19 07:51:44;;;;;;;7.30;0.40;;;25.70;95.70;;;;;;5104299;28;20035;-52
2022/05/19 07:54:15;;;;;;;2.75;0.50;;;25.70;95.70;;;;;;5104533;28;20016;-49
2022/05/19 07:56:42;;;;;;;1.83;0.40;;;25.70;95.60;;;;;;5104209;28;20108;-50
2022/05/19 07:59:11;;;;;;;2.72;0.47;;;25.70;95.60;;;;;;5104623;28;20330;-50
2022/05/19 08:01:39;;;;;;;1.60;0.40;;;25.70;95.70;;;;;;5103932;28;20048;-56
2022/05/19 08:04:07;;;;;;;4.05;0.60;;;25.70;95.60;;;;;;5104656;28;20024;-51
2022/05/19 08:06:35;;;;;;;2.80;0.40;;;25.70;95.60;;;;;;5104321;28;20028;-50
2022/05/19 08:10:20;;;;;;;4.68;0.50;;;25.70;95.60;;;;;;5104360;28;20054;-50
2022/05/19 08:11:48;;;;;;;4.15;0.50;;;25.70;95.70;;;;;;5103998;28;20016;-51
2022/05/19 08:17:00;;;;;;;3.38;0.35;;;25.70;95.60;;;;;;5104119;28;20053;-53
2022/05/19 08:19:26;;;;;;;2.53;0.40;;;25.60;95.60;;;;;;5104359;28;20357;-54
2022/05/19 08:21:53;;;;;;;2.88;0.32;;;25.60;95.70;;;;;;5104085;28;20016;-51
2022/05/19 08:24:21;;;;;;;4.57;0.45;;;25.60;95.80;;;;;;5104314;28;20190;-52
2022/05/19 08:26:47;;;;;;;2.88;0.30;;;25.60;95.70;;;;;;5103728;28;20070;-49
2022/05/19 08:29:15;;;;;;;3.58;0.40;;;25.60;95.70;;;;;;5104351;28;20065;-49
2022/05/19 08:31:41;;;;;;;9.35;0.60;;;25.60;95.70;;;;;;5104242;28;20016;-47
2022/05/19 08:34:08;;;;;;;4.78;0.45;;;25.60;95.80;;;;;;5104167;28;20020;-50
2022/05/19 08:36:35;;;;;;;4.88;0.75;;;25.60;95.80;;;;;;5103961;28;20245;-50
2022/05/19 08:39:01;;;;;;;2.63;0.63;;;25.60;95.80;;;;;;5103767;28;20028;-49
2022/05/19 08:41:38;;;;;;;3.45;0.30;;;25.60;95.80;;;;;;5103843;28;20061;-54
2022/05/19 08:44:18;;;;;;;4.18;0.50;;;25.60;95.80;;;;;;5104216;28;20085;-52
2022/05/19 08:46:48;;;;;;;2.85;0.40;;;25.60;95.80;;;;;;5103589;28;20250;-51
2022/05/19 08:49:24;;;;;;;3.47;0.43;;;25.60;95.80;;;;;;5104158;28;20020;-51
2022/05/19 08:52:14;;;;;;;2.92;0.40;;;25.60;95.80;;;;;;5104812;28;20039;-51
2022/05/19 08:54:44;;;;;;;5.95;0.55;;;25.60;95.80;;;;;;5107635;28;20033;-48
2022/05/19 08:57:24;;;;;;;5.38;0.65;;;25.60;95.80;;;;;;5107676;28;20024;-53
2022/05/19 09:00:23;;;;;;;3.65;0.32;;;25.60;95.80;;;;;;5107791;28;20028;-52
2022/05/19 09:03:13;;;;;;;4.35;0.40;;;25.60;95.80;;;;;;5107394;28;20055;-49
2022/05/19 09:05:49;;;;;;;3.00;0.40;;;25.60;95.80;;;;;;5107270;28;20016;-50
2022/05/19 09:08:24;;;;;;;4.40;0.80;;;25.60;95.80;;;;;;5107766;28;20046;-48
2022/05/19 09:11:15;;;;;;;5.30;0.60;;;25.60;95.90;;;;;;5107434;28;20012;-50
2022/05/19 09:14:03;;;;;;;2.33;0.57;;;25.60;95.90;;;;;;5107628;28;20370;-50
2022/05/19 09:16:33;;;;;;;3.50;0.45;;;25.60;95.90;;;;;;5107103;28;20083;-50
2022/05/19 09:19:09;;;;;;;4.78;0.60;;;25.60;95.90;;;;;;5107531;28;20024;-50
2022/05/19 09:21:39;;;;;;;5.47;0.60;;;25.60;95.90;;;;;;5106948;28;20376;-49
2022/05/19 09:24:06;;;;;;;2.03;0.45;;;25.60;96.00;;;;;;5107365;28;20028;-51
2022/05/19 09:26:33;;;;;;;4.95;0.73;;;25.60;96.00;;;;;;5106974;28;20022;-52
2022/05/19 09:29:07;;;;;;;3.65;0.30;;;25.60;96.00;;;;;;5107261;28;20028;-53
2022/05/19 09:31:39;;;;;;;4.93;0.70;;;25.50;96.00;;;;;;5106889;28;20016;-49
2022/05/19 09:34:08;;;;;;;3.05;0.38;;;25.50;95.90;;;;;;5107273;28;20355;-53
2022/05/19 09:36:52;;;;;;;4.07;0.40;;;25.50;95.90;;;;;;5106953;28;20035;-49
2022/05/19 09:39:20;;;;;;;4.03;0.40;;;25.50;95.80;;;;;;5107158;28;20084;-50
2022/05/19 09:41:53;;;;;;;5.03;0.57;;;25.50;95.80;;;;;;5107099;28;20181;-49
2022/05/19 09:44:28;;;;;;;4.72;0.55;;;25.50;95.70;;;;;;5107115;28;20092;-52
2022/05/19 09:46:55;;;;;;;5.38;0.57;;;25.50;95.70;;;;;;5102093;28;20020;-46
2022/05/19 09:49:33;;;;;;;7.18;0.50;;;25.50;95.70;;;;;;5086219;28;20024;-48
2022/05/19 09:52:03;;;;;;;1.88;0.60;;;25.50;95.60;;;;;;5086152;28;20028;-52
2022/05/19 09:54:32;;;;;;;3.78;0.50;;;25.50;95.60;;;;;;5087557;28;20031;-47
2022/05/19 09:57:10;;;;;;;5.97;0.50;;;25.50;95.60;;;;;;5086194;28;20088;-51
2022/05/19 09:59:45;;;;;;;4.82;0.60;;;25.60;95.60;;;;;;5085927;28;20092;-51
2022/05/19 10:02:30;;;;;;;3.80;0.60;;;25.50;95.50;;;;;;5085326;28;20068;-48
2022/05/19 10:04:59;;;;;;;1.38;0.30;;;25.50;95.50;;;;;;5086147;28;20040;-50
2022/05/19 10:07:36;;;;;;;3.20;0.55;;;25.50;95.50;;;;;;5086052;28;20021;-54
2022/05/19 10:10:17;;;;;;;5.65;0.63;;;25.50;95.50;;;;;;5086128;28;20240;-53
2022/05/19 10:12:47;;;;;;;4.82;0.60;;;25.50;95.40;;;;;;5086119;28;20024;-49
2022/05/19 10:15:16;;;;;;;2.38;0.38;;;25.50;95.40;;;;;;5085765;28;20182;-48
2022/05/19 10:18:07;;;;;;;2.03;0.50;;;25.50;95.30;;;;;;5085742;28;20031;-53
2022/05/19 10:20:45;;;;;;;5.95;0.40;;;25.50;95.30;;;;;;5085624;28;20351;-48
2022/05/19 10:23:20;;;;;;;1.58;0.45;;;25.50;95.40;;;;;;5085839;28;20028;-50
2022/05/19 10:25:50;;;;;;;3.10;0.70;;;25.50;95.40;;;;;;5085490;28;20043;-52
2022/05/19 10:31:23;;;;;;;3.90;0.77;;;25.50;95.30;;;;;;5085535;28;20070;-50
2022/05/19 10:34:07;;;;;;;4.13;0.85;;;25.50;95.40;;;;;;5085585;28;20052;-48
2022/05/19 10:36:45;;;;;;;3.83;0.77;;;25.50;95.30;;;;;;5085546;28;20164;-49
2022/05/19 10:39:21;;;;;;;6.53;1.17;;;25.50;95.40;;;;;;5085282;28;20087;-52
2022/05/19 10:42:00;;;;;;;3.70;0.90;;;25.50;95.40;;;;;;5085379;28;20024;-51
2022/05/19 10:44:51;;;;;;;4.53;0.70;;;25.50;95.40;;;;;;5085656;28;20029;-52
2022/05/19 10:47:53;;;;;;;8.60;1.10;;;25.50;95.40;;;;;;5085340;28;20241;-52
2022/05/19 10:50:35;;;;;;;3.95;0.93;;;25.50;95.40;;;;;;5085208;28;20016;-52
2022/05/19 10:53:58;;;;;;;4.13;1.00;;;25.50;95.40;;;;;;5085238;28;20096;-55
2022/05/19 10:56:57;;;;;;;3.58;0.90;;;25.50;95.40;;;;;;5043115;28;20329;-55
2022/05/19 10:59:45;;;;;;;4.97;0.90;;;25.50;95.40;;;;;;5043019;28;20039;-52
2022/05/19 11:02:54;;;;;;;3.10;0.85;;;25.50;95.40;;;;;;5083604;28;20044;-55
2022/05/19 11:05:51;;;;;;;7.10;0.98;;;25.50;95.40;;;;;;5071519;28;20044;-54
2022/05/19 11:08:23;;;;;;;7.47;1.55;;;25.50;95.40;;;;;;5085044;28;20308;-52
2022/05/19 11:11:01;;;;;;;4.88;1.17;;;25.50;95.50;;;;;;5084722;28;20044;-49
2022/05/19 11:13:46;;;;;;;66.43;4.07;;;25.50;95.50;;;;;;5084743;28;20047;-47
2022/05/19 11:16:23;;;;;;;24.27;2.10;;;25.50;95.50;;;;;;5084360;28;20027;-47
2022/05/19 11:18:56;;;;;;;9.98;1.42;;;25.50;95.50;;;;;;5084648;28;20035;-48
2022/05/19 11:21:44;;;;;;;;;;;25.50;95.50;;;;;;5085395;28;20024;-51
2022/05/19 11:24:22;;;;;;;13.18;1.17;;;25.50;95.50;;;;;;5084793;28;19904;-54
2022/05/19 11:26:51;;;;;;;5.70;0.90;;;25.50;95.50;;;;;;5084279;28;20016;-49
2022/05/19 11:29:32;;;;;;;7.07;0.93;;;25.50;95.50;;;;;;5084869;28;20058;-52
2022/05/19 11:32:05;;;;;;;7.05;1.40;;;25.50;95.50;;;;;;5084242;28;20020;-51
2022/05/19 11:34:37;;;;;;;6.28;1.60;;;25.50;95.50;;;;;;5084853;28;20227;-52
2022/05/19 11:37:31;;;;;;;5.22;1.80;;;25.50;95.50;;;;;;5084411;28;20028;-50
2022/05/19 11:40:14;;;;;;;4.15;1.67;;;25.50;95.50;;;;;;5094837;28;20091;-50
2022/05/19 11:42:53;;;;;;;6.32;1.60;;;25.50;95.50;;;;;;5104463;28;20027;-48
2022/05/19 11:45:33;;;;;;;7.85;1.50;;;25.50;95.50;;;;;;5103062;28;20026;-49
2022/05/19 11:57:18;;;;;;;6.45;1.52;;;25.60;95.70;;;;;;5084042;28;20104;-46
2022/05/19 11:59:48;;;;;;;4.15;1.15;;;25.60;95.70;;;;;;5083942;28;20055;-52
2022/05/19 12:02:19;;;;;;;2.67;1.15;;;25.60;95.70;;;;;;5083761;28;20056;-51
2022/05/19 12:04:48;;;;;;;4.82;1.40;;;25.60;95.70;;;;;;5083796;28;20060;-49
2022/05/19 12:07:24;;;;;;;4.50;1.00;;;25.60;95.70;;;;;;5083732;28;20055;-51
2022/05/19 12:09:59;;;;;;;2.38;1.00;;;25.60;95.70;;;;;;5083970;28;20028;-50
2022/05/19 12:12:36;;;;;;;6.22;1.20;;;25.60;95.70;;;;;;5083857;28;20012;-48
2022/05/19 12:15:25;;;;;;;3.10;1.13;;;25.60;95.70;;;;;;5083917;28;20032;-48
2022/05/19 12:18:24;;;;;;;4.63;1.10;;;25.70;95.80;;;;;;5083705;28;20062;-53
2022/05/19 12:20:52;;;;;;;3.85;0.90;;;25.70;95.90;;;;;;5050852;28;20100;-50
2022/05/19 12:23:26;;;;;;;2.50;0.88;;;25.70;95.80;;;;;;5082609;28;20021;-55
2022/05/19 12:26:00;;;;;;;3.63;0.80;;;25.70;95.80;;;;;;5084698;28;20039;-47
2022/05/19 12:28:40;;;;;;;3.60;0.70;;;25.70;95.80;;;;;;5087958;28;20072;-48
2022/05/19 12:34:07;;;;;;;2.72;0.70;;;25.80;95.90;;;;;;5088082;28;20043;-53
2022/05/19 12:36:50;;;;;;;5.00;1.08;;;25.80;95.90;;;;;;5087760;28;20340;-53
2022/05/19 12:39:17;;;;;;;4.45;0.90;;;25.80;95.90;;;;;;5088127;28;20032;-50
2022/05/19 12:41:49;;;;;;;6.10;0.90;;;25.80;95.90;;;;;;5087627;28;20088;-48
2022/05/19 12:44:38;;;;;;;1.80;0.70;;;25.80;96.00;;;;;;5087922;28;20016;-54
2022/05/19 12:47:08;;;;;;;5.32;1.52;;;25.80;95.90;;;;;;5087720;28;20035;-56
2022/05/19 12:49:36;;;;;;;6.68;1.30;;;25.90;95.90;;;;;;5087978;28;20043;-51
2022/05/19 12:52:14;;;;;;;6.97;1.90;;;25.90;96.00;;;;;;5087207;28;20316;-55
2022/05/19 12:55:30;;;;;;;5.43;1.70;;;25.90;96.00;;;;;;5087334;28;20036;-51
2022/05/19 12:58:17;;;;;;;6.05;1.13;;;25.90;96.00;;;;;;5056506;28;20028;-53
2022/05/19 13:00:44;;;;;;;3.63;1.40;;;25.90;96.00;;;;;;5087405;28;20028;-56
2022/05/19 13:03:18;;;;;;;5.63;1.40;;;25.90;96.10;;;;;;5104284;28;20051;-50
2022/05/19 13:06:02;;;;;;;3.53;1.17;;;25.90;96.10;;;;;;5107248;28;20061;-54
2022/05/19 13:08:49;;;;;;;4.43;1.17;;;25.90;96.10;;;;;;5107636;28;20012;-59
2022/05/19 13:11:21;;;;;;;6.15;1.40;;;25.90;96.20;;;;;;5107548;28;20103;-52
2022/05/19 13:13:53;;;;;;;4.22;1.23;;;25.90;96.20;;;;;;5107664;28;20256;-59
2022/05/19 13:16:30;;;;;;;;;;;26.00;96.20;;;;;;5107473;28;20035;-52
2022/05/19 13:19:02;;;;;;;3.10;1.10;;;26.00;96.30;;;;;;5087207;28;19981;-51
2022/05/19 13:21:41;;;;;;;5.63;1.27;;;26.00;96.30;;;;;;5086769;28;20037;-53
2022/05/19 13:24:12;;;;;;;4.85;1.13;;;26.00;96.40;;;;;;5087005;28;20021;-48
2022/05/19 13:26:41;;;;;;;7.20;1.63;;;26.00;96.30;;;;;;5087953;28;20032;-47
2022/05/19 13:32:04;;;;;;;5.47;1.80;;;26.00;96.40;;;;;;5106850;28;20023;-56
2022/05/19 13:34:44;;;;;;;8.73;1.80;;;26.10;96.40;;;;;;5107573;28;20023;-52
2022/05/19 13:37:12;;;;;;;7.10;1.90;;;26.10;96.50;;;;;;5104030;28;20024;-50